CheckWX is a tool to help pilots better visualize weather data.  It is not intended as a substitute for an official pre-flight weather briefing.

18:08:24 UTC

KPSO METAR
Stevens Field Airport
Pagosa Springs, Colorado, USA
Current

13 mins ago

KPSO 241755Z AUTO 25003KT 10SM CLR 14/M04 A3014 RMK AO2 T01421036 10143 21005
Observed
Apr-24 @ 17:55 UTC
Wind
  • 250° at 3 KTS
Visibility
10 SM
Flight Rules
VFR
Cloud Levels
  • Clear skies
Temperature
14°C / 57°F
Dewpoint
-4°C / 25°F
Humidity
29%
Altimeter
30.14" Hg
Pressure
1020.62 hPa
Previous

33 mins ago

KPSO 241735Z AUTO 26006KT 10SM CLR 14/M02 A3014 RMK AO2 T01391023
Observed
Apr-24 @ 17:35 UTC
Wind
  • 260° at 6 KTS
Visibility
10 SM
Flight Rules
VFR
Cloud Levels
  • Clear skies
Temperature
14°C / 57°F
Dewpoint
-2°C / 28°F
Humidity
33%
Altimeter
30.14" Hg
Pressure
1020.62 hPa
Previous

53 mins ago

KPSO 241715Z AUTO 19007KT 10SM CLR 14/M02 A3015 RMK AO2 T01351023
Observed
Apr-24 @ 17:15 UTC
Wind
  • 190° at 7 KTS
Visibility
10 SM
Flight Rules
VFR
Cloud Levels
  • Clear skies
Temperature
14°C / 57°F
Dewpoint
-2°C / 28°F
Humidity
33%
Altimeter
30.15" Hg
Pressure
1021.02 hPa